Time;durP1;ratioP1;P1;durP2;ratioP2;P2;SDS_P1;SDS_P2;PMS_P1;PMS_P2;Temp;Humidity;BMP_temperature;BMP_pressure;BME280_temperature;BME280_humidity;BME280_pressure;Samples;Min_cycle;Max_cycle;Signal;HPM_P1;HPM_P2
2021/12/14 00:00:32;;;;;;;;;;;3.10;99.90;;;;;;6045071;23;20239;-87
2021/12/14 00:03:00;;;;;;;;;;;3.20;99.90;;;;;;6072665;23;19925;-86
2021/12/14 00:05:28;;;;;;;;;;;3.10;99.90;;;;;;6103174;23;19932;-87
2021/12/14 00:07:57;;;;;;;;;;;3.10;99.90;;;;;;6070548;23;19949;-86
2021/12/14 00:13:21;;;;;;;;;;;2.90;99.90;;;;;;6080306;23;19928;-87
2021/12/14 00:15:48;;;;;;;;;;;3.00;99.90;;;;;;6068960;23;19922;-87
2021/12/14 00:18:16;;;;;;;;;;;3.00;99.90;;;;;;6078966;23;19921;-87
2021/12/14 00:20:46;;;;;;;;;;;3.00;99.90;;;;;;6046233;23;19929;-86
2021/12/14 00:25:46;;;;;;;;;;;3.00;99.90;;;;;;6080255;23;19929;-86
2021/12/14 00:28:16;;;;;;;;;;;3.00;99.90;;;;;;6070942;23;19922;-87
2021/12/14 00:30:45;;;;;;;;;;;3.10;99.90;;;;;;6077134;23;20234;-87
2021/12/14 00:33:15;;;;;;;;;;;3.10;99.90;;;;;;6080107;23;19921;-87
2021/12/14 00:35:43;;;;;;;;;;;3.10;99.90;;;;;;6068259;23;19929;-85
2021/12/14 00:38:11;;;;;;;;;;;3.10;99.90;;;;;;6097417;23;19983;-85
2021/12/14 00:40:41;;;;;;;;;;;3.10;99.90;;;;;;6075598;23;19926;-84
2021/12/14 00:43:09;;;;;;;;;;;3.00;99.90;;;;;;6063233;23;19927;-85
2021/12/14 00:45:38;;;;;;;;;;;3.10;99.90;;;;;;6064843;23;20226;-85
2021/12/14 00:48:06;;;;;;;;;;;3.00;99.90;;;;;;6089705;23;19926;-85
2021/12/14 00:50:34;;;;;;;;;;;3.10;99.90;;;;;;6040065;23;20326;-85
2021/12/14 00:53:02;;;;;;;;;;;3.10;99.90;;;;;;6064061;23;20349;-85
2021/12/14 00:55:36;;;;;;;;;;;3.10;99.90;;;;;;6069756;23;19922;-84
2021/12/14 00:58:07;;;;;;;;;;;3.10;99.90;;;;;;6039892;23;19926;-85
2021/12/14 01:00:38;;;;;;;;;;;3.10;99.90;;;;;;6074615;23;19929;-86
2021/12/14 01:03:07;;;;;;;;;;;3.10;99.90;;;;;;6071003;23;19926;-85
2021/12/14 01:05:36;;;;;;;;;;;3.10;99.90;;;;;;6074055;23;19925;-84
2021/12/14 01:08:08;;;;;;;;;;;3.10;99.90;;;;;;6089394;23;19928;-84
2021/12/14 01:11:06;;;;;;;;;;;3.10;99.90;;;;;;6072511;23;19921;-85
2021/12/14 01:13:38;;;;;;;;;;;3.10;99.90;;;;;;6053707;23;19922;-85
2021/12/14 01:16:17;;;;;;;;;;;3.10;99.90;;;;;;6040734;23;19925;-85
2021/12/14 01:19:01;;;;;;;;;;;3.10;99.90;;;;;;6000158;23;20342;-85
2021/12/14 01:24:09;;;;;;;;;;;3.10;99.90;;;;;;6063999;23;19925;-84
2021/12/14 01:26:39;;;;;;;;;;;3.10;99.90;;;;;;6064244;23;19925;-85
2021/12/14 01:29:09;;;;;;;;;;;3.10;99.90;;;;;;6063898;23;20334;-85
2021/12/14 01:31:40;;;;;;;;;;;3.10;99.90;;;;;;6021129;23;19933;-85
2021/12/14 01:34:14;;;;;;;;;;;3.10;99.90;;;;;;6022750;23;20266;-85
2021/12/14 01:36:46;;;;;;;;;;;3.00;99.90;;;;;;6064453;23;20214;-85
2021/12/14 01:41:55;;;;;;;;;;;2.90;99.90;;;;;;6062559;23;19922;-85
2021/12/14 01:44:26;;;;;;;;;;;2.90;99.90;;;;;;6063276;23;19922;-85
2021/12/14 01:46:59;;;;;;;;;;;2.90;99.90;;;;;;6069779;23;19925;-84
2021/12/14 01:49:43;;;;;;;;;;;2.90;99.90;;;;;;6040321;23;19922;-84
2021/12/14 01:52:32;;;;;;;;;;;2.90;99.90;;;;;;6062697;23;19922;-84
2021/12/14 01:55:12;;;;;;;;;;;2.90;99.90;;;;;;6070717;23;19929;-85
2021/12/14 01:57:41;;;;;;;;;;;3.00;99.90;;;;;;6092003;23;19925;-85
2021/12/14 02:00:11;;;;;;;;;;;2.90;99.90;;;;;;6088385;23;19936;-84
2021/12/14 02:02:42;;;;;;;;;;;3.00;99.90;;;;;;6072042;23;19929;-84
2021/12/14 02:05:14;;;;;;;;;;;3.00;99.90;;;;;;6040459;23;19926;-85
2021/12/14 02:07:41;;;;;;;;;;;3.00;99.90;;;;;;6066791;23;19933;-84
2021/12/14 02:10:16;;;;;;;;;;;3.00;99.90;;;;;;6039033;23;19921;-85
2021/12/14 02:12:45;;;;;;;;;;;3.00;99.90;;;;;;6039941;23;19925;-84
2021/12/14 02:15:26;;;;;;;;;;;3.00;99.90;;;;;;6068513;23;20246;-85
2021/12/14 02:17:55;;;;;;;;;;;3.00;99.90;;;;;;6075356;23;19929;-85
2021/12/14 02:20:25;;;;;;;;;;;3.00;99.90;;;;;;6015844;23;20348;-85
2021/12/14 02:22:56;;;;;;;;;;;3.00;99.90;;;;;;6062534;23;21574;-86
2021/12/14 02:25:23;;;;;;;;;;;3.00;99.90;;;;;;6039892;23;19925;-85
2021/12/14 02:27:52;;;;;;;;;;;3.00;99.90;;;;;;6066553;23;19933;-85
2021/12/14 02:30:22;;;;;;;;;;;2.90;99.90;;;;;;6072073;23;19921;-85
2021/12/14 02:32:53;;;;;;;;;;;2.90;99.90;;;;;;6041135;23;20618;-85
2021/12/14 02:35:24;;;;;;;;;;;2.80;99.90;;;;;;6063149;23;19925;-85
2021/12/14 02:38:05;;;;;;;;;;;2.80;99.90;;;;;;6073481;23;19933;-85
2021/12/14 02:40:53;;;;;;;;;;;2.70;99.90;;;;;;6062600;23;19925;-85
2021/12/14 02:43:52;;;;;;;;;;;2.70;99.90;;;;;;6090323;23;19925;-85
2021/12/14 02:46:30;;;;;;;;;;;2.70;99.90;;;;;;6071524;23;19936;-85
2021/12/14 02:48:59;;;;;;;;;;;2.70;99.90;;;;;;6073316;23;20342;-85
2021/12/14 02:51:29;;;;;;;;;;;2.60;99.90;;;;;;6067199;23;19933;-85
2021/12/14 02:54:04;;;;;;;;;;;2.60;99.90;;;;;;6039137;23;19925;-85
2021/12/14 02:57:18;;;;;;;;;;;2.60;99.90;;;;;;6001984;23;19922;-85
2021/12/14 03:00:39;;;;;;;;;;;2.60;99.90;;;;;;6040515;23;19928;-85
2021/12/14 03:03:53;;;;;;;;;;;2.50;99.90;;;;;;6073290;23;19933;-85
2021/12/14 03:06:48;;;;;;;;;;;2.40;99.90;;;;;;6076708;23;19928;-86
2021/12/14 03:12:10;;;;;;;;;;;2.30;99.90;;;;;;6045746;23;20321;-87
2021/12/14 03:15:18;;;;;;;;;;;2.20;99.90;;;;;;6066918;23;19925;-87
2021/12/14 03:18:15;;;;;;;;;;;2.20;99.90;;;;;;6078270;23;19921;-87
2021/12/14 03:20:45;;;;;;;;;;;2.20;99.90;;;;;;6045952;23;19921;-87
2021/12/14 03:23:15;;;;;;;;;;;2.20;99.90;;;;;;6074463;23;19922;-86
2021/12/14 03:25:44;;;;;;;;;;;2.20;99.90;;;;;;6079433;23;20330;-87
2021/12/14 03:28:13;;;;;;;;;;;2.10;99.90;;;;;;6070304;23;19929;-87
2021/12/14 03:30:49;;;;;;;;;;;2.20;99.90;;;;;;6044730;23;19925;-84
2021/12/14 03:33:21;;;;;;;;;;;2.20;99.90;;;;;;6098904;23;19926;-85
2021/12/14 03:35:55;;;;;;;;;;;2.20;99.90;;;;;;6069053;23;19928;-85
2021/12/14 03:38:29;;;;;;;;;;;2.20;99.90;;;;;;6018081;23;19933;-85
2021/12/14 03:41:06;;;;;;;;;;;2.20;99.90;;;;;;6089024;23;19936;-84
2021/12/14 03:43:34;;;;;;;;;;;2.20;99.90;;;;;;6091256;23;19933;-85
2021/12/14 03:46:05;;;;;;;;;;;2.10;99.90;;;;;;6098046;23;19932;-85
2021/12/14 03:48:34;;;;;;;;;;;2.00;99.90;;;;;;6098857;23;19925;-85
2021/12/14 03:51:02;;;;;;;;;;;2.00;99.90;;;;;;6071648;23;19922;-85
2021/12/14 03:53:30;;;;;;;;;;;2.10;99.90;;;;;;6074876;23;19925;-85
2021/12/14 03:56:00;;;;;;;;;;;2.00;99.90;;;;;;6066459;23;20275;-85
2021/12/14 03:58:35;;;;;;;;;;;2.00;99.90;;;;;;6089529;23;19926;-85
2021/12/14 04:01:14;;;;;;;;;;;2.00;99.90;;;;;;6074920;23;19937;-85
2021/12/14 04:03:51;;;;;;;;;;;2.00;99.90;;;;;;6068702;23;19926;-85
2021/12/14 04:06:27;;;;;;;;;;;2.00;99.90;;;;;;6041340;23;19921;-85
2021/12/14 04:08:55;;;;;;;;;;;1.90;99.90;;;;;;6076000;23;19921;-85
2021/12/14 04:11:23;;;;;;;;;;;1.80;99.90;;;;;;6093282;23;20245;-85
2021/12/14 04:13:52;;;;;;;;;;;1.70;99.90;;;;;;6040355;23;19928;-86
2021/12/14 04:16:30;;;;;;;;;;;1.70;99.90;;;;;;6043026;23;19925;-86
2021/12/14 04:19:04;;;;;;;;;;;1.70;99.90;;;;;;6041046;23;19922;-87
2021/12/14 04:21:34;;;;;;;;;;;1.70;99.90;;;;;;6100332;23;19921;-87
2021/12/14 04:24:03;;;;;;;;;;;1.70;99.90;;;;;;6068051;23;19921;-87
2021/12/14 04:26:31;;;;;;;;;;;1.70;99.90;;;;;;6072676;23;19971;-84
2021/12/14 04:29:00;;;;;;;;;;;1.70;99.90;;;;;;6064225;23;19926;-84
2021/12/14 04:31:35;;;;;;;;;;;1.70;99.90;;;;;;6063778;23;19926;-85
2021/12/14 04:34:06;;;;;;;;;;;1.70;99.90;;;;;;6074002;23;19926;-85
2021/12/14 04:36:34;;;;;;;;;;;1.70;99.90;;;;;;6041077;23;19926;-85
2021/12/14 04:39:29;;;;;;;;;;;1.70;99.90;;;;;;6063559;23;19926;-85
2021/12/14 04:53:22;;;;;;;;;;;1.50;99.90;;;;;;6056135;23;19922;-84
2021/12/14 04:55:57;;;;;;;;;;;1.50;99.90;;;;;;6018402;23;19922;-84
2021/12/14 04:58:27;;;;;;;;;;;1.50;99.90;;;;;;6018529;23;20655;-85
2021/12/14 05:00:55;;;;;;;;;;;1.50;99.90;;;;;;6073700;23;20337;-85
2021/12/14 05:03:29;;;;;;;;;;;1.40;99.90;;;;;;6091671;23;20522;-85
2021/12/14 05:06:13;;;;;;;;;;;1.40;99.90;;;;;;6044370;23;20325;-87
2021/12/14 05:11:14;;;;;;;;;;;1.30;99.90;;;;;;6039607;23;19929;-84
2021/12/14 05:13:51;;;;;;;;;;;1.30;99.90;;;;;;6073459;23;20253;-85
2021/12/14 05:16:30;;;;;;;;;;;1.30;99.90;;;;;;6042331;23;19936;-85
2021/12/14 05:19:03;;;;;;;;;;;1.20;99.90;;;;;;6017310;23;19930;-85
2021/12/14 05:21:37;;;;;;;;;;;1.20;99.90;;;;;;6040472;23;20336;-85
2021/12/14 05:24:08;;;;;;;;;;;1.20;99.90;;;;;;6065482;23;19926;-85
2021/12/14 05:26:42;;;;;;;;;;;1.20;99.90;;;;;;6094679;23;19932;-85
2021/12/14 05:29:10;;;;;;;;;;;1.10;99.90;;;;;;6073611;23;19926;-85
2021/12/14 05:31:43;;;;;;;;;;;1.10;99.90;;;;;;6066756;23;19925;-86
2021/12/14 05:34:12;;;;;;;;;;;1.10;99.90;;;;;;6039807;23;19929;-84
2021/12/14 05:36:41;;;;;;;;;;;1.10;99.90;;;;;;6069731;23;19922;-85
2021/12/14 05:45:22;;;;;;;;;;;1.00;99.90;;;;;;6073946;23;19928;-85
2021/12/14 05:47:53;;;;;;;;;;;1.00;99.90;;;;;;6093331;23;20251;-87
2021/12/14 05:50:29;;;;;;;;;;;1.00;99.90;;;;;;6076423;23;19922;-87
2021/12/14 05:52:58;;;;;;;;;;;0.90;99.90;;;;;;6078753;23;19932;-87
2021/12/14 05:55:28;;;;;;;;;;;0.90;99.90;;;;;;6095190;23;19921;-87
2021/12/14 05:57:57;;;;;;;;;;;0.90;99.90;;;;;;6064827;23;20313;-85
2021/12/14 06:00:26;;;;;;;;;;;0.90;99.90;;;;;;6063336;23;19933;-85
2021/12/14 06:03:01;;;;;;;;;;;0.90;99.90;;;;;;6093281;23;19926;-83
2021/12/14 06:05:30;;;;;;;;;;;0.90;99.90;;;;;;6072852;23;19922;-84
2021/12/14 06:07:59;;;;;;;;;;;0.80;99.90;;;;;;6088935;23;20215;-85
2021/12/14 06:10:27;;;;;;;;;;;0.80;99.90;;;;;;6095363;23;20488;-84
2021/12/14 06:12:56;;;;;;;;;;;0.80;99.90;;;;;;6051208;23;19933;-85
2021/12/14 06:15:28;;;;;;;;;;;0.70;99.90;;;;;;6070027;23;20348;-86
2021/12/14 06:18:31;;;;;;;;;;;0.80;99.90;;;;;;6045584;23;19933;-87
2021/12/14 06:21:04;;;;;;;;;;;0.80;99.90;;;;;;6042502;23;20222;-88
2021/12/14 06:23:35;;;;;;;;;;;0.80;99.90;;;;;;6044580;23;19934;-89
2021/12/14 06:26:19;;;;;;;;;;;0.90;99.90;;;;;;6053002;23;19928;-87
2021/12/14 06:28:47;;;;;;;;;;;0.80;99.90;;;;;;6098348;23;19921;-84
2021/12/14 06:31:22;;;;;;;;;;;0.70;99.90;;;;;;6040196;23;19929;-85
2021/12/14 06:33:50;;;;;;;;;;;0.80;99.90;;;;;;6075801;23;19933;-84
2021/12/14 06:36:35;;;;;;;;;;;0.60;99.90;;;;;;6041531;23;19972;-83
2021/12/14 06:39:05;;;;;;;;;;;0.60;99.90;;;;;;6070398;23;19921;-81
2021/12/14 06:41:33;;;;;;;;;;;0.60;99.90;;;;;;6076801;23;19921;-82
2021/12/14 06:44:00;;;;;;;;;;;0.60;99.90;;;;;;6041252;23;19934;-83
2021/12/14 06:46:30;;;;;;;;;;;0.50;99.90;;;;;;6066236;23;19922;-83
2021/12/14 06:49:00;;;;;;;;;;;0.50;99.90;;;;;;6076492;23;19928;-83
2021/12/14 06:51:32;;;;;;;;;;;0.60;99.90;;;;;;6045508;23;19926;-83
2021/12/14 06:54:16;;;;;;;;;;;0.60;99.90;;;;;;6041079;23;19921;-83
2021/12/14 06:56:51;;;;;;;;;;;0.60;99.90;;;;;;6078315;23;20330;-83
2021/12/14 06:59:39;;;;;;;;;;;0.60;99.90;;;;;;6072867;23;19925;-83
2021/12/14 07:02:11;;;;;;;;;;;0.60;99.90;;;;;;6046722;23;20371;-83
2021/12/14 07:04:56;;;;;;;;;;;0.60;99.90;;;;;;6059909;23;19922;-83
2021/12/14 07:07:27;;;;;;;;;;;0.70;99.90;;;;;;6097226;23;19925;-83
2021/12/14 07:10:01;;;;;;;;;;;0.70;99.90;;;;;;6080100;23;19925;-83
2021/12/14 07:12:31;;;;;;;;;;;0.70;99.90;;;;;;6045450;23;19928;-83
2021/12/14 07:15:02;;;;;;;;;;;0.70;99.90;;;;;;6046125;23;19932;-83
2021/12/14 07:17:31;;;;;;;;;;;0.70;99.90;;;;;;6023205;23;20343;-84
2021/12/14 07:20:01;;;;;;;;;;;0.60;99.90;;;;;;6097085;23;19921;-83
2021/12/14 07:22:31;;;;;;;;;;;0.60;99.90;;;;;;6045601;23;20243;-84
2021/12/14 07:25:01;;;;;;;;;;;0.70;99.90;;;;;;6046512;23;19921;-84
2021/12/14 07:27:48;;;;;;;;;;;0.80;99.90;;;;;;6069447;23;19932;-84
2021/12/14 07:30:25;;;;;;;;;;;0.70;99.90;;;;;;6079510;23;19970;-84
2021/12/14 07:32:56;;;;;;;;;;;0.70;99.90;;;;;;6056349;23;20360;-84
2021/12/14 07:35:27;;;;;;;;;;;0.80;99.90;;;;;;6098287;23;19925;-85
2021/12/14 07:37:57;;;;;;;;;;;0.80;99.90;;;;;;6046433;23;19996;-84
2021/12/14 07:40:32;;;;;;;;;;;0.80;99.90;;;;;;6045370;23;19925;-84
2021/12/14 07:43:09;;;;;;;;;;;0.90;99.90;;;;;;6074603;23;19926;-84
2021/12/14 07:45:42;;;;;;;;;;;0.90;99.90;;;;;;6046192;23;19925;-84
2021/12/14 07:48:09;;;;;;;;;;;1.00;99.90;;;;;;6022361;23;19925;-84
2021/12/14 07:50:39;;;;;;;;;;;1.10;99.90;;;;;;6053391;23;19944;-84
2021/12/14 07:53:07;;;;;;;;;;;1.20;99.90;;;;;;6103916;23;19925;-85
2021/12/14 07:55:37;;;;;;;;;;;1.20;99.90;;;;;;6098866;23;19922;-85
2021/12/14 07:58:05;;;;;;;;;;;1.30;99.90;;;;;;6098202;23;20241;-84
2021/12/14 08:00:39;;;;;;;;;;;1.40;99.90;;;;;;6079213;23;19928;-85
2021/12/14 08:03:08;;;;;;;;;;;1.30;99.90;;;;;;6045626;23;19945;-85
2021/12/14 08:05:43;;;;;;;;;;;1.30;99.90;;;;;;6046344;23;19927;-85
2021/12/14 08:08:16;;;;;;;;;;;1.30;99.90;;;;;;6022109;23;19926;-84
2021/12/14 08:11:08;;;;;;;;;;;1.20;99.90;;;;;;6024539;23;20249;-85
2021/12/14 08:13:44;;;;;;;;;;;1.20;99.90;;;;;;6079337;23;19925;-85
2021/12/14 08:16:12;;;;;;;;;;;1.00;99.90;;;;;;6095684;23;19929;-85
2021/12/14 08:18:40;;;;;;;;;;;0.90;99.90;;;;;;6076455;23;19928;-85
2021/12/14 08:21:08;;;;;;;;;;;1.00;99.90;;;;;;6069557;23;19925;-85
2021/12/14 08:23:40;;;;;;;;;;;1.10;99.90;;;;;;6045162;23;19936;-84
2021/12/14 08:26:25;;;;;;;;;;;1.10;99.90;;;;;;6104403;23;19922;-84
2021/12/14 08:28:57;;;;;;;;;;;1.10;99.90;;;;;;6104829;23;19925;-85
2021/12/14 08:31:30;;;;;;;;;;;1.20;99.90;;;;;;6098179;23;19928;-84
2021/12/14 08:33:59;;;;;;;;;;;1.30;99.90;;;;;;6105086;23;19928;-85
2021/12/14 08:36:38;;;;;;;;;;;1.20;99.90;;;;;;6095072;23;19925;-85
2021/12/14 08:39:07;;;;;;;;;;;1.20;99.90;;;;;;6075080;23;19922;-84
2021/12/14 08:41:35;;;;;;;;;;;1.20;99.90;;;;;;6069295;23;19925;-85
2021/12/14 08:44:10;;;;;;;;;;;1.30;99.90;;;;;;6095646;23;19936;-85
2021/12/14 08:46:38;;;;;;;;;;;1.30;99.90;;;;;;6069274;23;19932;-85
2021/12/14 08:49:06;;;;;;;;;;;1.30;99.90;;;;;;6069496;23;19925;-85
2021/12/14 08:51:36;;;;;;;;;;;1.40;99.90;;;;;;6049043;23;19942;-85
2021/12/14 08:54:12;;;;;;;;;;;1.40;99.90;;;;;;6078315;23;19929;-85
2021/12/14 08:56:41;;;;;;;;;;;1.50;99.90;;;;;;6078983;23;19925;-85
2021/12/14 08:59:09;;;;;;;;;;;1.70;99.90;;;;;;6068286;23;19925;-85
2021/12/14 09:01:42;;;;;;;;;;;1.80;99.90;;;;;;6045099;23;19922;-85
2021/12/14 09:04:10;;;;;;;;;;;2.00;99.90;;;;;;6070505;23;20345;-85
2021/12/14 09:06:39;;;;;;;;;;;2.00;99.90;;;;;;6100178;23;20253;-85
2021/12/14 09:09:09;;;;;;;;;;;2.10;99.90;;;;;;6104440;23;19929;-85
2021/12/14 09:11:38;;;;;;;;;;;2.20;99.90;;;;;;6097670;23;19921;-84
2021/12/14 09:14:09;;;;;;;;;;;2.40;99.90;;;;;;6102006;23;19956;-85
2021/12/14 09:16:37;;;;;;;;;;;2.70;99.90;;;;;;6105056;23;19928;-85
2021/12/14 09:19:11;;;;;;;;;;;3.00;99.90;;;;;;6099912;23;19932;-85
2021/12/14 09:21:40;;;;;;;;;;;3.20;99.90;;;;;;6104783;23;19944;-84
2021/12/14 09:24:09;;;;;;;;;;;3.40;99.90;;;;;;6068338;23;19922;-84
2021/12/14 09:26:38;;;;;;;;;;;3.60;99.90;;;;;;6101493;23;19921;-85
2021/12/14 09:29:08;;;;;;;;;;;3.80;99.90;;;;;;6021249;23;19929;-84
2021/12/14 09:31:38;;;;;;;;;;;4.00;99.90;;;;;;6020767;23;19928;-85
2021/12/14 09:34:07;;;;;;;;;;;4.20;99.90;;;;;;6068521;23;19925;-84
2021/12/14 09:36:37;;;;;;;;;;;4.10;99.90;;;;;;6022049;23;19925;-85
2021/12/14 09:39:14;;;;;;;;;;;3.90;99.90;;;;;;6045047;23;19932;-85
2021/12/14 09:41:53;;;;;;;;;;;3.70;99.90;;;;;;6093967;23;19925;-85
2021/12/14 09:44:30;;;;;;;;;;;3.60;99.90;;;;;;6044367;23;20477;-85
2021/12/14 09:47:01;;;;;;;;;;;3.50;99.90;;;;;;6021367;23;19921;-85
2021/12/14 09:49:32;;;;;;;;;;;3.50;99.90;;;;;;6094830;23;19921;-85
2021/12/14 09:52:06;;;;;;;;;;;3.80;99.90;;;;;;6044451;23;19925;-85
2021/12/14 09:54:34;;;;;;;;;;;4.00;99.90;;;;;;6101749;23;19925;-85
2021/12/14 09:57:07;;;;;;;;;;;4.10;99.90;;;;;;6076920;23;19925;-85
2021/12/14 09:59:37;;;;;;;;;;;4.10;99.90;;;;;;6097624;23;19925;-85
2021/12/14 10:02:16;;;;;;;;;;;4.20;99.90;;;;;;6103356;23;19921;-85
2021/12/14 10:04:46;;;;;;;;;;;4.30;99.90;;;;;;6104670;23;19976;-85
2021/12/14 10:07:14;;;;;;;;;;;4.50;99.90;;;;;;6073038;23;19925;-85
2021/12/14 10:09:47;;;;;;;;;;;4.60;99.90;;;;;;6104644;23;19929;-85
2021/12/14 10:14:53;;;;;;;;;;;4.70;99.90;;;;;;6043432;23;20319;-85
2021/12/14 10:17:22;;;;;;;;;;;4.60;99.90;;;;;;6069198;23;19974;-85
2021/12/14 10:19:50;;;;;;;;;;;4.60;99.90;;;;;;6044494;23;19925;-85
2021/12/14 10:22:24;;;;;;;;;;;4.50;99.90;;;;;;6045151;23;19929;-85
2021/12/14 10:24:56;;;;;;;;;;;4.40;99.90;;;;;;6055103;23;20226;-85
2021/12/14 10:27:25;;;;;;;;;;;4.30;99.90;;;;;;6020681;23;19929;-85
2021/12/14 10:29:54;;;;;;;;;;;4.20;99.90;;;;;;6045292;23;19932;-85
2021/12/14 10:32:24;;;;;;;;;;;4.30;99.90;;;;;;6045212;23;19925;-85
2021/12/14 10:34:56;;;;;;;;;;;4.50;99.90;;;;;;6051305;23;19933;-85
2021/12/14 10:43:13;;;;;;;;;;;4.70;99.90;;;;;;6098692;23;19925;-85
2021/12/14 10:45:53;;;;;;;;;;;4.70;99.90;;;;;;6078715;23;19921;-85
2021/12/14 10:48:22;;;;;;;;;;;4.70;99.90;;;;;;6068679;23;19928;-85
2021/12/14 10:50:51;;;;;;;;;;;5.00;99.90;;;;;;6074526;23;19922;-86
2021/12/14 10:53:20;;;;;;;;;;;5.00;99.90;;;;;;6045370;23;19921;-85
2021/12/14 10:55:50;;;;;;;;;;;5.00;99.90;;;;;;6047358;23;19921;-85
2021/12/14 10:58:19;;;;;;;;;;;5.00;99.90;;;;;;6096327;23;19948;-86
2021/12/14 11:00:47;;;;;;;;;;;4.90;99.90;;;;;;6068661;23;20352;-85
2021/12/14 11:03:19;;;;;;;;;;;4.80;99.90;;;;;;6073127;23;19933;-85
2021/12/14 11:05:52;;;;;;;;;;;4.90;99.90;;;;;;6068753;23;19925;-86
2021/12/14 11:08:37;;;;;;;;;;;5.00;99.90;;;;;;6092674;23;19932;-86
2021/12/14 11:11:08;;;;;;;;;;;5.20;99.90;;;;;;6074032;23;19925;-86
2021/12/14 11:13:42;;;;;;;;;;;5.00;99.90;;;;;;6101954;23;19926;-86
2021/12/14 11:16:16;;;;;;;;;;;5.00;99.90;;;;;;6020824;23;19925;-85
2021/12/14 11:18:45;;;;;;;;;;;5.00;99.90;;;;;;6076143;23;19925;-85
2021/12/14 11:21:14;;;;;;;;;;;5.00;99.90;;;;;;6079984;23;19925;-86
2021/12/14 11:23:44;;;;;;;;;;;5.00;99.90;;;;;;6072818;23;19921;-85
2021/12/14 11:26:14;;;;;;;;;;;5.00;99.90;;;;;;6046175;23;19925;-85
2021/12/14 11:28:45;;;;;;;;;;;4.90;99.90;;;;;;6103947;23;20257;-85
2021/12/14 11:31:17;;;;;;;;;;;4.90;99.90;;;;;;6046191;23;20328;-86
2021/12/14 11:33:52;;;;;;;;;;;4.90;99.90;;;;;;6080486;23;19929;-85
2021/12/14 11:36:28;;;;;;;;;;;4.80;99.90;;;;;;6095773;23;19925;-85
2021/12/14 11:39:22;;;;;;;;;;;4.80;99.90;;;;;;6101034;23;19925;-86
2021/12/14 11:41:54;;;;;;;;;;;4.80;99.90;;;;;;6105470;23;20238;-85
2021/12/14 11:44:29;;;;;;;;;;;4.70;99.90;;;;;;6095623;23;19922;-85
2021/12/14 11:47:03;;;;;;;;;;;4.50;99.90;;;;;;6069806;23;20248;-85
2021/12/14 11:49:45;;;;;;;;;;;4.30;99.90;;;;;;6046313;23;19925;-85
2021/12/14 11:52:13;;;;;;;;;;;4.30;99.90;;;;;;6021751;23;20262;-85
2021/12/14 11:54:42;;;;;;;;;;;4.30;99.90;;;;;;6022464;23;19926;-86
2021/12/14 11:57:10;;;;;;;;;;;4.40;99.90;;;;;;6072519;23;19928;-85
2021/12/14 11:59:38;;;;;;;;;;;4.50;99.90;;;;;;6069419;23;19925;-85
2021/12/14 12:02:06;;;;;;;;;;;4.50;99.90;;;;;;6064917;23;19929;-85
2021/12/14 12:04:42;;;;;;;;;;;4.50;99.90;;;;;;6044786;23;19926;-83
2021/12/14 12:09:59;;;;;;;;;;;4.50;99.90;;;;;;6075965;23;19922;-83
2021/12/14 12:12:29;;;;;;;;;;;4.30;99.90;;;;;;6065516;23;19925;-83
2021/12/14 12:14:59;;;;;;;;;;;4.30;99.90;;;;;;6070562;23;19926;-83
2021/12/14 12:17:26;;;;;;;;;;;4.40;99.90;;;;;;6065008;23;19922;-83
2021/12/14 12:20:00;;;;;;;;;;;4.30;99.90;;;;;;6064070;23;19933;-83
2021/12/14 12:22:32;;;;;;;;;;;4.30;99.90;;;;;;6071941;23;20591;-82
2021/12/14 12:25:00;;;;;;;;;;;4.30;99.90;;;;;;6074896;23;19928;-83
2021/12/14 12:27:30;;;;;;;;;;;4.30;99.90;;;;;;6068288;23;19926;-83
2021/12/14 12:30:12;;;;;;;;;;;4.40;99.90;;;;;;6074657;23;19922;-83
2021/12/14 12:32:40;;;;;;;;;;;4.40;99.90;;;;;;6049240;23;19921;-83
2021/12/14 12:35:26;;;;;;;;;;;4.30;99.90;;;;;;6071052;23;19932;-83
2021/12/14 12:37:54;;;;;;;;;;;4.40;99.90;;;;;;6075901;23;19949;-83
2021/12/14 12:40:47;;;;;;;;;;;4.40;99.90;;;;;;6040794;23;19933;-83
2021/12/14 12:43:18;;;;;;;;;;;4.40;99.90;;;;;;6063365;23;19933;-83
2021/12/14 12:45:56;;;;;;;;;;;4.50;99.90;;;;;;6076007;23;19922;-83
2021/12/14 12:48:42;;;;;;;;;;;4.60;99.90;;;;;;6065916;23;19925;-83
2021/12/14 12:51:10;;;;;;;;;;;4.60;99.90;;;;;;6063805;23;19929;-83
2021/12/14 12:53:38;;;;;;;;;;;4.60;99.90;;;;;;6063802;23;19922;-83
2021/12/14 12:56:08;;;;;;;;;;;4.60;99.90;;;;;;6067119;23;19925;-83
2021/12/14 12:58:38;;;;;;;;;;;4.70;99.90;;;;;;6065486;23;19922;-82
2021/12/14 13:01:06;;;;;;;;;;;4.70;99.90;;;;;;6076239;23;19925;-83
2021/12/14 13:03:37;;;;;;;;;;;4.70;99.90;;;;;;6069255;23;20352;-83
2021/12/14 13:06:06;;;;;;;;;;;4.60;99.90;;;;;;6097781;23;19948;-83
2021/12/14 13:08:39;;;;;;;;;;;4.60;99.90;;;;;;6075493;23;19926;-83
2021/12/14 13:11:07;;;;;;;;;;;4.60;99.90;;;;;;6069269;23;19928;-83
2021/12/14 13:13:40;;;;;;;;;;;4.60;99.90;;;;;;6075120;23;19930;-83
2021/12/14 13:16:10;;;;;;;;;;;4.70;99.90;;;;;;6016674;23;19925;-83
2021/12/14 13:18:56;;;;;;;;;;;4.70;99.90;;;;;;6075869;23;19926;-82
2021/12/14 13:21:33;;;;;;;;;;;4.70;99.90;;;;;;6043721;23;19922;-82
2021/12/14 13:24:00;;;;;;;;;;;4.70;99.90;;;;;;6068673;23;20330;-82
2021/12/14 13:26:36;;;;;;;;;;;4.80;99.90;;;;;;6043183;23;19928;-82
2021/12/14 13:29:14;;;;;;;;;;;4.80;99.90;;;;;;6076990;23;19921;-82
2021/12/14 13:32:11;;;;;;;;;;;5.00;99.90;;;;;;6042825;23;19944;-82
2021/12/14 13:34:45;;;;;;;;;;;5.00;99.90;;;;;;6055702;23;19951;-83
2021/12/14 13:37:14;;;;;;;;;;;5.20;99.90;;;;;;6067438;23;19922;-82
2021/12/14 13:39:42;;;;;;;;;;;5.20;99.90;;;;;;6068004;23;20007;-82
2021/12/14 13:42:11;;;;;;;;;;;5.30;99.90;;;;;;6038526;23;19929;-82
2021/12/14 13:44:50;;;;;;;;;;;5.30;99.90;;;;;;6097596;23;19941;-82
2021/12/14 13:47:25;;;;;;;;;;;5.30;99.90;;;;;;6040135;23;20360;-82
2021/12/14 13:49:54;;;;;;;;;;;5.20;99.90;;;;;;6075517;23;19925;-82
2021/12/14 13:52:22;;;;;;;;;;;5.30;99.90;;;;;;6064140;23;20632;-82
2021/12/14 13:55:22;;;;;;;;;;;5.30;99.90;;;;;;6072114;23;20227;-82
2021/12/14 13:58:01;;;;;;;;;;;5.30;99.90;;;;;;6032753;23;20281;-82
2021/12/14 14:00:33;;;;;;;;;;;5.40;99.90;;;;;;6062854;23;20387;-82
2021/12/14 14:03:00;;;;;;;;;;;5.30;99.90;;;;;;6072381;23;19921;-82
2021/12/14 14:05:28;;;;;;;;;;;5.20;99.90;;;;;;6067161;23;19926;-82
2021/12/14 14:07:59;;;;;;;;;;;5.20;99.90;;;;;;6070092;23;20233;-82
2021/12/14 14:10:31;;;;;;;;;;;5.10;99.90;;;;;;6042880;23;19922;-82
2021/12/14 14:13:04;;;;;;;;;;;5.00;99.90;;;;;;6078039;23;19921;-82
2021/12/14 14:15:33;;;;;;;;;;;5.00;99.90;;;;;;6066725;23;19922;-82
2021/12/14 14:18:09;;;;;;;;;;;5.00;99.90;;;;;;6100841;23;19925;-82
2021/12/14 14:20:38;;;;;;;;;;;5.10;99.90;;;;;;6050740;23;19922;-82
2021/12/14 14:23:11;;;;;;;;;;;5.10;99.90;;;;;;6040839;23;19925;-82
2021/12/14 14:25:43;;;;;;;;;;;5.10;99.90;;;;;;6078089;23;20245;-82
2021/12/14 14:28:24;;;;;;;;;;;5.20;99.90;;;;;;6065999;23;20330;-82
2021/12/14 14:30:53;;;;;;;;;;;5.20;99.90;;;;;;6066354;23;20211;-82
2021/12/14 14:33:30;;;;;;;;;;;5.20;99.90;;;;;;6064148;23;20253;-83
2021/12/14 14:36:00;;;;;;;;;;;5.30;99.90;;;;;;6066738;23;19921;-83
2021/12/14 14:38:30;;;;;;;;;;;5.30;99.90;;;;;;6047750;23;20327;-83
2021/12/14 14:41:00;;;;;;;;;;;5.30;99.90;;;;;;6075279;23;19922;-82
2021/12/14 14:43:46;;;;;;;;;;;5.30;99.90;;;;;;6067079;23;19926;-82
2021/12/14 14:46:32;;;;;;;;;;;5.20;99.90;;;;;;6096259;23;19922;-83
2021/12/14 14:49:02;;;;;;;;;;;5.20;99.90;;;;;;6073961;23;19922;-82
2021/12/14 14:51:48;;;;;;;;;;;5.20;99.90;;;;;;6067193;23;20245;-82
2021/12/14 14:54:28;;;;;;;;;;;5.10;99.90;;;;;;6049580;23;19932;-83
2021/12/14 14:56:55;;;;;;;;;;;5.20;99.90;;;;;;6068556;23;19929;-83
2021/12/14 14:59:23;;;;;;;;;;;5.10;99.90;;;;;;6099885;23;19925;-82
2021/12/14 15:01:51;;;;;;;;;;;5.00;99.90;;;;;;6103587;23;19932;-82
2021/12/14 15:04:20;;;;;;;;;;;4.90;99.90;;;;;;6071211;23;19928;-82
2021/12/14 15:06:48;;;;;;;;;;;4.80;99.90;;;;;;6102561;23;19922;-82
2021/12/14 15:09:19;;;;;;;;;;;4.70;99.90;;;;;;6079987;23;19922;-83
2021/12/14 15:11:52;;;;;;;;;;;4.70;99.90;;;;;;6048689;23;19928;-82
2021/12/14 15:14:31;;;;;;;;;;;4.70;99.90;;;;;;6103630;23;19928;-83
2021/12/14 15:17:01;;;;;;;;;;;4.60;99.90;;;;;;6080643;23;19925;-82
2021/12/14 15:19:31;;;;;;;;;;;4.40;99.90;;;;;;6069806;23;19921;-83
2021/12/14 15:21:58;;;;;;;;;;;4.20;99.90;;;;;;6072428;23;19921;-83
2021/12/14 15:24:41;;;;;;;;;;;4.00;99.90;;;;;;6046083;23;19925;-82
2021/12/14 15:27:09;;;;;;;;;;;4.00;99.90;;;;;;6021903;23;19925;-82
2021/12/14 15:29:38;;;;;;;;;;;4.00;99.90;;;;;;6080477;23;19932;-83
2021/12/14 15:32:12;;;;;;;;;;;4.10;99.90;;;;;;6095934;23;20380;-82
2021/12/14 15:34:54;;;;;;;;;;;4.10;99.90;;;;;;6102563;23;19921;-83
2021/12/14 15:37:40;;;;;;;;;;;4.10;99.90;;;;;;6046340;23;19925;-82
2021/12/14 15:40:16;;;;;;;;;;;4.10;99.90;;;;;;6095828;23;19925;-83
2021/12/14 15:42:44;;;;;;;;;;;4.00;99.90;;;;;;6075965;23;19926;-83
2021/12/14 15:45:13;;;;;;;;;;;3.90;99.90;;;;;;6105436;23;19928;-83
2021/12/14 15:47:59;;;;;;;;;;;3.80;99.90;;;;;;6098434;23;19933;-83
2021/12/14 15:50:27;;;;;;;;;;;3.80;99.90;;;;;;6077889;23;19925;-83